sensor_id;sensor_type;location;lat;lon;timestamp;P1;durP1;ratioP1;P2;durP2;ratioP2
67063;SDS011;58476;48.072;11.970;2022-11-15T00:01:49;5.70;;;2.92;;
67063;SDS011;58476;48.072;11.970;2022-11-15T00:04:33;4.78;;;2.60;;
67063;SDS011;58476;48.072;11.970;2022-11-15T00:07:17;3.85;;;2.33;;
67063;SDS011;58476;48.072;11.970;2022-11-15T00:10:00;7.93;;;2.67;;
67063;SDS011;58476;48.072;11.970;2022-11-15T00:12:44;6.15;;;2.53;;
67063;SDS011;58476;48.072;11.970;2022-11-15T00:15:28;5.30;;;2.30;;
67063;SDS011;58476;48.072;11.970;2022-11-15T00:18:12;5.25;;;2.55;;
67063;SDS011;58476;48.072;11.970;2022-11-15T00:21:03;3.35;;;2.30;;
67063;SDS011;58476;48.072;11.970;2022-11-15T00:23:48;4.53;;;2.50;;
67063;SDS011;58476;48.072;11.970;2022-11-15T00:26:32;5.55;;;2.45;;
67063;SDS011;58476;48.072;11.970;2022-11-15T00:29:16;5.20;;;2.47;;
67063;SDS011;58476;48.072;11.970;2022-11-15T00:32:00;7.00;;;2.45;;
67063;SDS011;58476;48.072;11.970;2022-11-15T00:34:44;6.35;;;2.22;;
67063;SDS011;58476;48.072;11.970;2022-11-15T00:37:28;3.63;;;2.40;;
67063;SDS011;58476;48.072;11.970;2022-11-15T00:40:12;3.72;;;2.33;;
67063;SDS011;58476;48.072;11.970;2022-11-15T00:42:56;4.25;;;2.40;;
67063;SDS011;58476;48.072;11.970;2022-11-15T00:45:40;3.67;;;2.20;;
67063;SDS011;58476;48.072;11.970;2022-11-15T00:48:24;4.05;;;2.40;;
67063;SDS011;58476;48.072;11.970;2022-11-15T00:51:08;2.70;;;2.08;;
67063;SDS011;58476;48.072;11.970;2022-11-15T00:53:52;2.53;;;2.08;;
67063;SDS011;58476;48.072;11.970;2022-11-15T00:56:35;4.25;;;2.22;;
67063;SDS011;58476;48.072;11.970;2022-11-15T00:59:19;2.90;;;1.92;;
67063;SDS011;58476;48.072;11.970;2022-11-15T01:02:03;4.22;;;2.20;;
67063;SDS011;58476;48.072;11.970;2022-11-15T01:04:47;2.92;;;2.10;;
67063;SDS011;58476;48.072;11.970;2022-11-15T01:07:31;3.58;;;2.20;;
67063;SDS011;58476;48.072;11.970;2022-11-15T01:10:15;4.63;;;2.00;;
67063;SDS011;58476;48.072;11.970;2022-11-15T01:13:00;2.83;;;2.08;;
67063;SDS011;58476;48.072;11.970;2022-11-15T01:15:43;4.15;;;2.20;;
67063;SDS011;58476;48.072;11.970;2022-11-15T01:18:27;3.25;;;2.08;;
67063;SDS011;58476;48.072;11.970;2022-11-15T01:21:12;3.95;;;2.25;;
67063;SDS011;58476;48.072;11.970;2022-11-15T01:23:57;2.30;;;1.90;;
67063;SDS011;58476;48.072;11.970;2022-11-15T01:26:41;3.63;;;2.08;;
67063;SDS011;58476;48.072;11.970;2022-11-15T01:29:25;2.67;;;1.88;;
67063;SDS011;58476;48.072;11.970;2022-11-15T01:32:09;2.97;;;1.83;;
67063;SDS011;58476;48.072;11.970;2022-11-15T01:34:53;3.95;;;2.05;;
67063;SDS011;58476;48.072;11.970;2022-11-15T01:37:36;2.92;;;1.90;;
67063;SDS011;58476;48.072;11.970;2022-11-15T01:40:20;2.60;;;1.98;;
67063;SDS011;58476;48.072;11.970;2022-11-15T01:43:24;3.22;;;1.73;;
67063;SDS011;58476;48.072;11.970;2022-11-15T01:46:19;3.03;;;2.13;;
67063;SDS011;58476;48.072;11.970;2022-11-15T01:49:06;2.22;;;1.85;;
67063;SDS011;58476;48.072;11.970;2022-11-15T01:52:03;3.63;;;1.80;;
67063;SDS011;58476;48.072;11.970;2022-11-15T01:54:51;4.20;;;1.88;;
67063;SDS011;58476;48.072;11.970;2022-11-15T01:57:40;3.72;;;1.98;;
67063;SDS011;58476;48.072;11.970;2022-11-15T02:00:26;3.72;;;1.80;;
67063;SDS011;58476;48.072;11.970;2022-11-15T02:03:11;6.10;;;1.80;;
67063;SDS011;58476;48.072;11.970;2022-11-15T02:05:55;4.60;;;1.92;;
67063;SDS011;58476;48.072;11.970;2022-11-15T02:08:39;3.45;;;2.10;;
67063;SDS011;58476;48.072;11.970;2022-11-15T02:11:23;4.15;;;2.10;;
67063;SDS011;58476;48.072;11.970;2022-11-15T02:14:07;7.18;;;1.90;;
67063;SDS011;58476;48.072;11.970;2022-11-15T02:29:30;3.17;;;1.90;;
67063;SDS011;58476;48.072;11.970;2022-11-15T02:32:40;2.33;;;1.60;;
67063;SDS011;58476;48.072;11.970;2022-11-15T02:38:48;4.38;;;2.13;;
67063;SDS011;58476;48.072;11.970;2022-11-15T02:41:46;5.03;;;1.80;;
67063;SDS011;58476;48.072;11.970;2022-11-15T02:44:37;3.50;;;1.80;;
67063;SDS011;58476;48.072;11.970;2022-11-15T02:47:24;3.10;;;1.77;;
67063;SDS011;58476;48.072;11.970;2022-11-15T02:50:10;6.22;;;1.70;;
67063;SDS011;58476;48.072;11.970;2022-11-15T02:52:56;4.45;;;1.83;;
67063;SDS011;58476;48.072;11.970;2022-11-15T02:55:44;2.45;;;1.60;;
67063;SDS011;58476;48.072;11.970;2022-11-15T03:04:37;5.20;;;1.60;;
67063;SDS011;58476;48.072;11.970;2022-11-15T03:10:32;4.13;;;1.80;;
67063;SDS011;58476;48.072;11.970;2022-11-15T03:13:35;3.70;;;1.70;;
67063;SDS011;58476;48.072;11.970;2022-11-15T03:19:48;5.72;;;1.65;;
67063;SDS011;58476;48.072;11.970;2022-11-15T03:22:36;3.42;;;1.70;;
67063;SDS011;58476;48.072;11.970;2022-11-15T03:25:24;6.82;;;1.90;;
67063;SDS011;58476;48.072;11.970;2022-11-15T03:28:15;3.28;;;1.60;;
67063;SDS011;58476;48.072;11.970;2022-11-15T03:31:04;5.40;;;1.88;;
67063;SDS011;58476;48.072;11.970;2022-11-15T03:33:50;3.50;;;1.50;;
67063;SDS011;58476;48.072;11.970;2022-11-15T03:36:36;4.30;;;1.73;;
67063;SDS011;58476;48.072;11.970;2022-11-15T03:39:21;3.85;;;1.50;;
67063;SDS011;58476;48.072;11.970;2022-11-15T03:47:59;6.97;;;1.90;;
67063;SDS011;58476;48.072;11.970;2022-11-15T03:50:43;4.28;;;2.00;;
67063;SDS011;58476;48.072;11.970;2022-11-15T03:53:29;6.70;;;1.80;;
67063;SDS011;58476;48.072;11.970;2022-11-15T03:56:13;5.38;;;1.60;;
67063;SDS011;58476;48.072;11.970;2022-11-15T03:58:57;4.65;;;1.73;;
67063;SDS011;58476;48.072;11.970;2022-11-15T04:01:41;8.77;;;1.77;;
67063;SDS011;58476;48.072;11.970;2022-11-15T04:04:25;5.80;;;1.63;;
67063;SDS011;58476;48.072;11.970;2022-11-15T04:07:08;8.45;;;1.80;;
67063;SDS011;58476;48.072;11.970;2022-11-15T04:09:52;9.05;;;1.77;;
67063;SDS011;58476;48.072;11.970;2022-11-15T04:12:36;3.95;;;1.92;;
67063;SDS011;58476;48.072;11.970;2022-11-15T04:15:22;3.38;;;1.60;;
67063;SDS011;58476;48.072;11.970;2022-11-15T04:18:07;2.38;;;1.77;;
67063;SDS011;58476;48.072;11.970;2022-11-15T04:20:51;4.70;;;1.67;;
67063;SDS011;58476;48.072;11.970;2022-11-15T04:23:35;3.42;;;1.63;;
67063;SDS011;58476;48.072;11.970;2022-11-15T04:26:20;3.58;;;1.77;;
67063;SDS011;58476;48.072;11.970;2022-11-15T04:29:05;6.07;;;1.95;;
67063;SDS011;58476;48.072;11.970;2022-11-15T04:31:50;4.93;;;1.73;;
67063;SDS011;58476;48.072;11.970;2022-11-15T04:34:33;3.38;;;1.60;;
67063;SDS011;58476;48.072;11.970;2022-11-15T04:37:17;5.43;;;1.60;;
67063;SDS011;58476;48.072;11.970;2022-11-15T04:40:01;5.97;;;1.60;;
67063;SDS011;58476;48.072;11.970;2022-11-15T04:42:45;4.10;;;1.58;;
67063;SDS011;58476;48.072;11.970;2022-11-15T04:45:30;2.67;;;1.40;;
67063;SDS011;58476;48.072;11.970;2022-11-15T04:48:14;2.60;;;1.58;;
67063;SDS011;58476;48.072;11.970;2022-11-15T04:50:58;2.30;;;1.48;;
67063;SDS011;58476;48.072;11.970;2022-11-15T04:53:41;2.85;;;1.60;;
67063;SDS011;58476;48.072;11.970;2022-11-15T04:56:26;2.75;;;1.50;;
67063;SDS011;58476;48.072;11.970;2022-11-15T04:59:10;3.55;;;1.50;;
67063;SDS011;58476;48.072;11.970;2022-11-15T05:01:54;2.88;;;1.65;;
67063;SDS011;58476;48.072;11.970;2022-11-15T05:04:37;3.10;;;1.50;;
67063;SDS011;58476;48.072;11.970;2022-11-15T05:07:21;3.08;;;1.50;;
67063;SDS011;58476;48.072;11.970;2022-11-15T05:10:06;3.47;;;1.50;;
67063;SDS011;58476;48.072;11.970;2022-11-15T05:12:50;5.05;;;1.35;;
67063;SDS011;58476;48.072;11.970;2022-11-15T05:15:34;4.22;;;1.50;;
67063;SDS011;58476;48.072;11.970;2022-11-15T05:18:18;2.08;;;1.55;;
67063;SDS011;58476;48.072;11.970;2022-11-15T05:21:05;2.95;;;1.48;;
67063;SDS011;58476;48.072;11.970;2022-11-15T05:23:50;12.45;;;1.95;;
67063;SDS011;58476;48.072;11.970;2022-11-15T05:26:34;3.60;;;1.80;;
67063;SDS011;58476;48.072;11.970;2022-11-15T05:29:18;4.20;;;1.60;;
67063;SDS011;58476;48.072;11.970;2022-11-15T05:32:03;4.82;;;1.58;;
67063;SDS011;58476;48.072;11.970;2022-11-15T05:34:49;2.88;;;2.00;;
67063;SDS011;58476;48.072;11.970;2022-11-15T05:37:33;6.45;;;1.60;;
67063;SDS011;58476;48.072;11.970;2022-11-15T05:40:17;8.73;;;1.98;;
67063;SDS011;58476;48.072;11.970;2022-11-15T05:43:01;11.35;;;1.85;;
67063;SDS011;58476;48.072;11.970;2022-11-15T05:45:47;6.85;;;1.88;;
67063;SDS011;58476;48.072;11.970;2022-11-15T05:48:32;9.68;;;1.70;;
67063;SDS011;58476;48.072;11.970;2022-11-15T05:51:18;6.70;;;1.92;;
67063;SDS011;58476;48.072;11.970;2022-11-15T05:54:06;11.80;;;2.15;;
67063;SDS011;58476;48.072;11.970;2022-11-15T05:56:50;11.77;;;2.30;;
67063;SDS011;58476;48.072;11.970;2022-11-15T05:59:34;8.20;;;2.53;;
67063;SDS011;58476;48.072;11.970;2022-11-15T06:02:19;9.23;;;2.67;;
67063;SDS011;58476;48.072;11.970;2022-11-15T06:05:03;8.95;;;2.50;;
67063;SDS011;58476;48.072;11.970;2022-11-15T06:07:47;10.40;;;2.70;;
67063;SDS011;58476;48.072;11.970;2022-11-15T06:10:31;14.48;;;2.92;;
67063;SDS011;58476;48.072;11.970;2022-11-15T06:13:15;15.13;;;3.58;;
67063;SDS011;58476;48.072;11.970;2022-11-15T06:15:59;9.45;;;2.97;;
67063;SDS011;58476;48.072;11.970;2022-11-15T06:18:43;9.95;;;2.88;;
67063;SDS011;58476;48.072;11.970;2022-11-15T06:21:27;13.45;;;3.08;;
67063;SDS011;58476;48.072;11.970;2022-11-15T06:24:11;10.88;;;3.60;;
67063;SDS011;58476;48.072;11.970;2022-11-15T06:26:55;11.95;;;3.13;;
67063;SDS011;58476;48.072;11.970;2022-11-15T06:29:39;11.82;;;3.50;;
67063;SDS011;58476;48.072;11.970;2022-11-15T06:32:23;16.08;;;3.67;;
67063;SDS011;58476;48.072;11.970;2022-11-15T06:35:07;14.00;;;3.38;;
67063;SDS011;58476;48.072;11.970;2022-11-15T06:37:51;7.28;;;3.15;;
67063;SDS011;58476;48.072;11.970;2022-11-15T06:40:35;13.25;;;3.47;;
67063;SDS011;58476;48.072;11.970;2022-11-15T06:43:21;11.35;;;2.92;;
67063;SDS011;58476;48.072;11.970;2022-11-15T06:46:05;9.48;;;3.13;;
67063;SDS011;58476;48.072;11.970;2022-11-15T06:48:52;17.13;;;3.17;;
67063;SDS011;58476;48.072;11.970;2022-11-15T06:51:37;9.68;;;2.90;;
67063;SDS011;58476;48.072;11.970;2022-11-15T06:54:21;18.55;;;3.40;;
67063;SDS011;58476;48.072;11.970;2022-11-15T06:57:05;11.35;;;3.45;;
67063;SDS011;58476;48.072;11.970;2022-11-15T06:59:49;27.00;;;4.38;;
67063;SDS011;58476;48.072;11.970;2022-11-15T07:02:32;9.40;;;3.10;;
67063;SDS011;58476;48.072;11.970;2022-11-15T07:05:16;14.88;;;3.50;;
67063;SDS011;58476;48.072;11.970;2022-11-15T07:08:01;12.32;;;3.00;;
67063;SDS011;58476;48.072;11.970;2022-11-15T07:10:45;15.63;;;3.13;;
67063;SDS011;58476;48.072;11.970;2022-11-15T07:13:30;15.75;;;3.20;;
67063;SDS011;58476;48.072;11.970;2022-11-15T07:16:15;11.50;;;2.83;;
67063;SDS011;58476;48.072;11.970;2022-11-15T07:18:59;11.55;;;2.63;;
67063;SDS011;58476;48.072;11.970;2022-11-15T07:21:43;9.65;;;2.30;;
67063;SDS011;58476;48.072;11.970;2022-11-15T07:24:27;18.08;;;3.35;;
67063;SDS011;58476;48.072;11.970;2022-11-15T07:27:11;18.38;;;3.83;;
67063;SDS011;58476;48.072;11.970;2022-11-15T07:29:55;19.38;;;3.53;;
67063;SDS011;58476;48.072;11.970;2022-11-15T07:32:39;15.73;;;2.58;;
67063;SDS011;58476;48.072;11.970;2022-11-15T07:35:23;11.60;;;3.10;;
67063;SDS011;58476;48.072;11.970;2022-11-15T07:38:08;11.48;;;2.88;;
67063;SDS011;58476;48.072;11.970;2022-11-15T07:40:55;10.10;;;3.17;;
67063;SDS011;58476;48.072;11.970;2022-11-15T07:43:40;15.82;;;2.53;;
67063;SDS011;58476;48.072;11.970;2022-11-15T07:46:24;10.80;;;3.13;;
67063;SDS011;58476;48.072;11.970;2022-11-15T07:49:08;9.48;;;2.30;;
67063;SDS011;58476;48.072;11.970;2022-11-15T07:51:52;10.80;;;2.47;;
67063;SDS011;58476;48.072;11.970;2022-11-15T07:54:36;11.45;;;2.50;;
67063;SDS011;58476;48.072;11.970;2022-11-15T07:57:20;8.32;;;2.72;;
67063;SDS011;58476;48.072;11.970;2022-11-15T08:00:04;11.85;;;2.83;;
67063;SDS011;58476;48.072;11.970;2022-11-15T08:02:49;10.32;;;2.40;;
67063;SDS011;58476;48.072;11.970;2022-11-15T08:05:33;13.85;;;2.38;;
67063;SDS011;58476;48.072;11.970;2022-11-15T08:08:19;14.05;;;2.60;;
67063;SDS011;58476;48.072;11.970;2022-11-15T08:11:03;9.70;;;2.60;;
67063;SDS011;58476;48.072;11.970;2022-11-15T08:13:47;10.07;;;2.40;;
67063;SDS011;58476;48.072;11.970;2022-11-15T08:16:31;8.55;;;2.65;;
67063;SDS011;58476;48.072;11.970;2022-11-15T08:19:15;11.30;;;2.47;;
67063;SDS011;58476;48.072;11.970;2022-11-15T08:21:59;7.40;;;2.33;;
67063;SDS011;58476;48.072;11.970;2022-11-15T08:24:43;6.78;;;2.15;;
67063;SDS011;58476;48.072;11.970;2022-11-15T08:27:28;12.82;;;2.35;;
67063;SDS011;58476;48.072;11.970;2022-11-15T08:30:11;10.98;;;2.20;;
67063;SDS011;58476;48.072;11.970;2022-11-15T08:32:57;13.32;;;2.63;;
67063;SDS011;58476;48.072;11.970;2022-11-15T08:35:42;11.45;;;2.33;;
67063;SDS011;58476;48.072;11.970;2022-11-15T08:38:26;12.13;;;2.35;;
67063;SDS011;58476;48.072;11.970;2022-11-15T08:41:13;10.40;;;2.20;;
67063;SDS011;58476;48.072;11.970;2022-11-15T08:44:00;8.30;;;2.13;;
67063;SDS011;58476;48.072;11.970;2022-11-15T08:46:47;8.90;;;2.70;;
67063;SDS011;58476;48.072;11.970;2022-11-15T08:49:31;3.45;;;1.90;;
67063;SDS011;58476;48.072;11.970;2022-11-15T08:52:15;4.72;;;1.90;;
67063;SDS011;58476;48.072;11.970;2022-11-15T08:54:59;5.32;;;2.17;;
67063;SDS011;58476;48.072;11.970;2022-11-15T08:57:43;6.43;;;1.92;;
67063;SDS011;58476;48.072;11.970;2022-11-15T09:00:27;4.22;;;1.80;;
67063;SDS011;58476;48.072;11.970;2022-11-15T09:03:11;5.72;;;2.85;;
67063;SDS011;58476;48.072;11.970;2022-11-15T09:05:59;7.60;;;1.83;;
67063;SDS011;58476;48.072;11.970;2022-11-15T09:08:43;4.43;;;1.95;;
67063;SDS011;58476;48.072;11.970;2022-11-15T09:11:27;3.15;;;1.70;;
67063;SDS011;58476;48.072;11.970;2022-11-15T09:14:12;9.57;;;1.95;;
67063;SDS011;58476;48.072;11.970;2022-11-15T09:16:56;3.35;;;1.70;;
67063;SDS011;58476;48.072;11.970;2022-11-15T09:19:41;6.10;;;1.90;;
67063;SDS011;58476;48.072;11.970;2022-11-15T09:22:24;3.00;;;1.50;;
67063;SDS011;58476;48.072;11.970;2022-11-15T09:25:08;5.53;;;1.83;;
67063;SDS011;58476;48.072;11.970;2022-11-15T09:27:53;3.85;;;2.10;;
67063;SDS011;58476;48.072;11.970;2022-11-15T09:30:36;4.30;;;1.67;;
67063;SDS011;58476;48.072;11.970;2022-11-15T09:33:20;4.63;;;1.65;;
67063;SDS011;58476;48.072;11.970;2022-11-15T09:36:05;4.43;;;1.65;;
67063;SDS011;58476;48.072;11.970;2022-11-15T09:38:50;5.57;;;2.70;;
67063;SDS011;58476;48.072;11.970;2022-11-15T09:47:56;2.30;;;1.80;;
67063;SDS011;58476;48.072;11.970;2022-11-15T09:50:49;6.50;;;1.70;;
67063;SDS011;58476;48.072;11.970;2022-11-15T09:53:39;5.80;;;1.70;;
67063;SDS011;58476;48.072;11.970;2022-11-15T09:56:31;3.08;;;1.38;;
67063;SDS011;58476;48.072;11.970;2022-11-15T09:59:07;3.60;;;1.60;;
67063;SDS011;58476;48.072;11.970;2022-11-15T10:04:33;2.78;;;1.50;;
67063;SDS011;58476;48.072;11.970;2022-11-15T10:09:56;5.03;;;1.50;;
67063;SDS011;58476;48.072;11.970;2022-11-15T10:12:26;3.47;;;1.60;;
67063;SDS011;58476;48.072;11.970;2022-11-15T10:14:56;3.85;;;1.60;;
67063;SDS011;58476;48.072;11.970;2022-11-15T10:20:17;3.67;;;1.27;;
67063;SDS011;58476;48.072;11.970;2022-11-15T10:22:50;2.00;;;1.40;;
67063;SDS011;58476;48.072;11.970;2022-11-15T10:25:19;2.42;;;1.40;;
67063;SDS011;58476;48.072;11.970;2022-11-15T10:28:28;3.13;;;1.50;;
67063;SDS011;58476;48.072;11.970;2022-11-15T10:30:54;4.03;;;1.70;;
67063;SDS011;58476;48.072;11.970;2022-11-15T10:38:49;1.40;;;1.27;;
67063;SDS011;58476;48.072;11.970;2022-11-15T10:41:27;3.30;;;1.52;;
67063;SDS011;58476;48.072;11.970;2022-11-15T10:51:45;5.18;;;1.35;;
67063;SDS011;58476;48.072;11.970;2022-11-15T10:54:57;2.17;;;1.50;;
67063;SDS011;58476;48.072;11.970;2022-11-15T10:57:07;1.55;;;1.20;;
67063;SDS011;58476;48.072;11.970;2022-11-15T10:59:38;3.60;;;1.40;;
67063;SDS011;58476;48.072;11.970;2022-11-15T11:05:31;3.85;;;1.45;;
67063;SDS011;58476;48.072;11.970;2022-11-15T11:08:20;4.45;;;1.67;;
67063;SDS011;58476;48.072;11.970;2022-11-15T11:10:56;4.55;;;1.65;;
67063;SDS011;58476;48.072;11.970;2022-11-15T11:13:36;1.67;;;1.23;;
67063;SDS011;58476;48.072;11.970;2022-11-15T11:21:09;5.47;;;1.52;;
67063;SDS011;58476;48.072;11.970;2022-11-15T11:23:54;2.77;;;1.37;;
67063;SDS011;58476;48.072;11.970;2022-11-15T11:26:40;3.20;;;1.40;;
67063;SDS011;58476;48.072;11.970;2022-11-15T11:29:47;1.65;;;1.20;;
67063;SDS011;58476;48.072;11.970;2022-11-15T11:32:23;3.05;;;1.40;;
67063;SDS011;58476;48.072;11.970;2022-11-15T11:35:05;4.32;;;1.20;;
67063;SDS011;58476;48.072;11.970;2022-11-15T11:43:03;2.10;;;1.13;;
67063;SDS011;58476;48.072;11.970;2022-11-15T11:50:29;4.63;;;1.50;;
67063;SDS011;58476;48.072;11.970;2022-11-15T11:53:03;1.33;;;1.20;;
67063;SDS011;58476;48.072;11.970;2022-11-15T12:08:39;5.38;;;1.50;;
67063;SDS011;58476;48.072;11.970;2022-11-15T12:11:22;2.70;;;1.20;;
67063;SDS011;58476;48.072;11.970;2022-11-15T12:14:03;2.85;;;1.33;;
67063;SDS011;58476;48.072;11.970;2022-11-15T12:16:33;4.30;;;1.30;;
67063;SDS011;58476;48.072;11.970;2022-11-15T12:19:00;2.85;;;1.25;;
67063;SDS011;58476;48.072;11.970;2022-11-15T12:24:18;4.28;;;1.30;;
67063;SDS011;58476;48.072;11.970;2022-11-15T12:26:49;1.80;;;1.35;;
67063;SDS011;58476;48.072;11.970;2022-11-15T12:29:26;2.55;;;1.85;;
67063;SDS011;58476;48.072;11.970;2022-11-15T12:31:58;3.50;;;1.90;;
67063;SDS011;58476;48.072;11.970;2022-11-15T12:36:52;2.20;;;1.30;;
67063;SDS011;58476;48.072;11.970;2022-11-15T12:39:18;2.42;;;1.25;;
67063;SDS011;58476;48.072;11.970;2022-11-15T12:41:44;5.00;;;1.30;;
67063;SDS011;58476;48.072;11.970;2022-11-15T13:22:41;4.78;;;1.70;;
67063;SDS011;58476;48.072;11.970;2022-11-15T13:28:35;5.03;;;1.40;;
67063;SDS011;58476;48.072;11.970;2022-11-15T13:32:04;5.63;;;1.38;;
67063;SDS011;58476;48.072;11.970;2022-11-15T13:34:28;8.30;;;1.40;;
67063;SDS011;58476;48.072;11.970;2022-11-15T13:36:56;3.00;;;1.55;;
67063;SDS011;58476;48.072;11.970;2022-11-15T13:39:29;4.10;;;1.42;;
67063;SDS011;58476;48.072;11.970;2022-11-15T13:41:56;2.88;;;1.33;;
67063;SDS011;58476;48.072;11.970;2022-11-15T13:44:25;2.53;;;1.50;;
67063;SDS011;58476;48.072;11.970;2022-11-15T13:47:06;3.00;;;1.25;;
67063;SDS011;58476;48.072;11.970;2022-11-15T13:49:38;6.53;;;1.40;;
67063;SDS011;58476;48.072;11.970;2022-11-15T13:52:07;3.08;;;1.20;;
67063;SDS011;58476;48.072;11.970;2022-11-15T13:54:38;3.00;;;1.40;;
67063;SDS011;58476;48.072;11.970;2022-11-15T13:57:29;4.45;;;1.40;;
67063;SDS011;58476;48.072;11.970;2022-11-15T14:00:04;5.55;;;1.30;;
67063;SDS011;58476;48.072;11.970;2022-11-15T14:02:38;1.63;;;1.25;;
67063;SDS011;58476;48.072;11.970;2022-11-15T14:05:19;7.10;;;1.58;;
67063;SDS011;58476;48.072;11.970;2022-11-15T14:07:57;3.72;;;1.45;;
67063;SDS011;58476;48.072;11.970;2022-11-15T14:10:25;2.17;;;1.40;;
67063;SDS011;58476;48.072;11.970;2022-11-15T14:12:53;8.70;;;1.52;;
67063;SDS011;58476;48.072;11.970;2022-11-15T14:15:24;5.30;;;1.30;;
67063;SDS011;58476;48.072;11.970;2022-11-15T14:17:53;2.15;;;1.30;;
67063;SDS011;58476;48.072;11.970;2022-11-15T14:20:37;5.18;;;1.52;;
67063;SDS011;58476;48.072;11.970;2022-11-15T14:23:05;2.33;;;1.38;;
67063;SDS011;58476;48.072;11.970;2022-11-15T14:25:52;2.28;;;1.80;;
67063;SDS011;58476;48.072;11.970;2022-11-15T14:30:44;6.00;;;1.50;;
67063;SDS011;58476;48.072;11.970;2022-11-15T14:35:55;6.10;;;1.40;;
67063;SDS011;58476;48.072;11.970;2022-11-15T14:38:21;4.63;;;1.40;;
67063;SDS011;58476;48.072;11.970;2022-11-15T14:40:46;2.00;;;1.10;;
67063;SDS011;58476;48.072;11.970;2022-11-15T14:43:12;2.97;;;1.40;;
67063;SDS011;58476;48.072;11.970;2022-11-15T14:45:38;2.13;;;1.30;;
67063;SDS011;58476;48.072;11.970;2022-11-15T14:48:04;6.05;;;1.60;;
67063;SDS011;58476;48.072;11.970;2022-11-15T14:50:29;4.43;;;1.48;;
67063;SDS011;58476;48.072;11.970;2022-11-15T14:52:57;4.72;;;1.50;;
67063;SDS011;58476;48.072;11.970;2022-11-15T14:55:23;4.20;;;1.50;;
67063;SDS011;58476;48.072;11.970;2022-11-15T14:57:50;4.15;;;1.70;;
67063;SDS011;58476;48.072;11.970;2022-11-15T15:00:16;4.32;;;1.58;;
67063;SDS011;58476;48.072;11.970;2022-11-15T15:02:42;3.38;;;1.50;;
67063;SDS011;58476;48.072;11.970;2022-11-15T15:05:19;4.63;;;1.80;;
67063;SDS011;58476;48.072;11.970;2022-11-15T15:07:49;3.05;;;1.67;;
67063;SDS011;58476;48.072;11.970;2022-11-15T15:10:15;6.13;;;1.50;;
67063;SDS011;58476;48.072;11.970;2022-11-15T15:12:41;6.20;;;1.60;;
67063;SDS011;58476;48.072;11.970;2022-11-15T15:15:26;6.75;;;1.67;;
67063;SDS011;58476;48.072;11.970;2022-11-15T15:17:57;6.60;;;2.15;;
67063;SDS011;58476;48.072;11.970;2022-11-15T15:20:22;9.15;;;1.90;;
67063;SDS011;58476;48.072;11.970;2022-11-15T15:22:47;2.30;;;1.50;;
67063;SDS011;58476;48.072;11.970;2022-11-15T15:27:49;3.47;;;1.85;;
67063;SDS011;58476;48.072;11.970;2022-11-15T15:30:15;2.20;;;1.60;;
67063;SDS011;58476;48.072;11.970;2022-11-15T15:32:40;3.72;;;1.70;;
67063;SDS011;58476;48.072;11.970;2022-11-15T15:35:06;3.97;;;1.92;;
67063;SDS011;58476;48.072;11.970;2022-11-15T15:37:32;4.40;;;2.50;;
67063;SDS011;58476;48.072;11.970;2022-11-15T15:39:58;4.53;;;2.40;;
67063;SDS011;58476;48.072;11.970;2022-11-15T15:42:24;6.55;;;2.80;;
67063;SDS011;58476;48.072;11.970;2022-11-15T15:44:50;5.18;;;2.90;;
67063;SDS011;58476;48.072;11.970;2022-11-15T15:47:22;9.20;;;3.20;;
67063;SDS011;58476;48.072;11.970;2022-11-15T15:49:48;8.38;;;3.30;;
67063;SDS011;58476;48.072;11.970;2022-11-15T15:52:15;8.90;;;3.10;;
67063;SDS011;58476;48.072;11.970;2022-11-15T15:54:40;11.82;;;3.20;;
67063;SDS011;58476;48.072;11.970;2022-11-15T15:57:06;4.20;;;2.88;;
67063;SDS011;58476;48.072;11.970;2022-11-15T15:59:33;6.50;;;3.85;;
67063;SDS011;58476;48.072;11.970;2022-11-15T16:01:59;5.82;;;3.42;;
67063;SDS011;58476;48.072;11.970;2022-11-15T16:04:24;9.27;;;3.47;;
67063;SDS011;58476;48.072;11.970;2022-11-15T16:06:50;6.97;;;3.33;;
67063;SDS011;58476;48.072;11.970;2022-11-15T16:09:16;7.10;;;3.20;;
67063;SDS011;58476;48.072;11.970;2022-11-15T16:11:46;8.00;;;3.05;;
67063;SDS011;58476;48.072;11.970;2022-11-15T16:14:11;5.32;;;2.70;;
67063;SDS011;58476;48.072;11.970;2022-11-15T16:16:37;7.03;;;2.97;;
67063;SDS011;58476;48.072;11.970;2022-11-15T16:19:03;5.45;;;3.20;;
67063;SDS011;58476;48.072;11.970;2022-11-15T16:21:29;5.53;;;3.00;;
67063;SDS011;58476;48.072;11.970;2022-11-15T16:23:55;5.55;;;2.97;;
67063;SDS011;58476;48.072;11.970;2022-11-15T16:28:47;7.43;;;2.97;;
67063;SDS011;58476;48.072;11.970;2022-11-15T16:31:12;6.13;;;2.85;;
67063;SDS011;58476;48.072;11.970;2022-11-15T16:33:38;3.70;;;2.60;;
67063;SDS011;58476;48.072;11.970;2022-11-15T16:36:05;8.32;;;2.75;;
67063;SDS011;58476;48.072;11.970;2022-11-15T16:38:37;6.70;;;3.30;;
67063;SDS011;58476;48.072;11.970;2022-11-15T16:41:03;5.10;;;2.60;;
67063;SDS011;58476;48.072;11.970;2022-11-15T16:43:28;4.82;;;2.80;;
67063;SDS011;58476;48.072;11.970;2022-11-15T16:45:53;3.83;;;2.75;;
67063;SDS011;58476;48.072;11.970;2022-11-15T16:48:23;5.45;;;2.63;;
67063;SDS011;58476;48.072;11.970;2022-11-15T16:50:50;4.75;;;2.63;;
67063;SDS011;58476;48.072;11.970;2022-11-15T16:53:18;5.22;;;2.78;;
67063;SDS011;58476;48.072;11.970;2022-11-15T16:55:44;5.10;;;2.97;;
67063;SDS011;58476;48.072;11.970;2022-11-15T16:58:09;4.70;;;3.00;;
67063;SDS011;58476;48.072;11.970;2022-11-15T17:00:35;7.30;;;2.50;;
67063;SDS011;58476;48.072;11.970;2022-11-15T17:03:00;4.65;;;2.60;;
67063;SDS011;58476;48.072;11.970;2022-11-15T17:05:25;7.13;;;2.90;;
67063;SDS011;58476;48.072;11.970;2022-11-15T17:07:51;6.13;;;2.80;;
67063;SDS011;58476;48.072;11.970;2022-11-15T17:10:16;10.75;;;2.90;;
67063;SDS011;58476;48.072;11.970;2022-11-15T17:12:42;4.53;;;2.65;;
67063;SDS011;58476;48.072;11.970;2022-11-15T17:15:08;5.10;;;2.60;;
67063;SDS011;58476;48.072;11.970;2022-11-15T17:17:36;5.03;;;2.60;;
67063;SDS011;58476;48.072;11.970;2022-11-15T17:20:01;8.07;;;2.75;;
67063;SDS011;58476;48.072;11.970;2022-11-15T17:22:27;5.22;;;3.15;;
67063;SDS011;58476;48.072;11.970;2022-11-15T17:24:52;5.80;;;2.63;;
67063;SDS011;58476;48.072;11.970;2022-11-15T17:27:17;4.15;;;2.75;;
67063;SDS011;58476;48.072;11.970;2022-11-15T17:29:42;6.75;;;3.05;;
67063;SDS011;58476;48.072;11.970;2022-11-15T17:32:08;8.40;;;3.40;;
67063;SDS011;58476;48.072;11.970;2022-11-15T17:34:33;5.35;;;3.08;;
67063;SDS011;58476;48.072;11.970;2022-11-15T17:36:58;4.25;;;2.75;;
67063;SDS011;58476;48.072;11.970;2022-11-15T17:39:24;6.03;;;2.80;;
67063;SDS011;58476;48.072;11.970;2022-11-15T17:41:49;7.22;;;3.00;;
67063;SDS011;58476;48.072;11.970;2022-11-15T17:44:15;4.65;;;2.80;;
67063;SDS011;58476;48.072;11.970;2022-11-15T17:46:40;7.93;;;3.00;;
67063;SDS011;58476;48.072;11.970;2022-11-15T17:49:06;5.18;;;3.10;;
67063;SDS011;58476;48.072;11.970;2022-11-15T17:51:31;7.25;;;3.33;;
67063;SDS011;58476;48.072;11.970;2022-11-15T17:53:57;9.73;;;3.45;;
67063;SDS011;58476;48.072;11.970;2022-11-15T17:56:23;10.43;;;3.05;;
67063;SDS011;58476;48.072;11.970;2022-11-15T17:58:51;6.88;;;3.67;;
67063;SDS011;58476;48.072;11.970;2022-11-15T18:01:19;6.78;;;2.75;;
67063;SDS011;58476;48.072;11.970;2022-11-15T18:03:52;14.38;;;3.35;;
67063;SDS011;58476;48.072;11.970;2022-11-15T18:06:19;9.80;;;3.70;;
67063;SDS011;58476;48.072;11.970;2022-11-15T18:08:46;8.00;;;3.70;;
67063;SDS011;58476;48.072;11.970;2022-11-15T18:13:42;14.13;;;4.35;;
67063;SDS011;58476;48.072;11.970;2022-11-15T18:16:11;12.77;;;4.40;;